MacAlister, Canada
Current Conditions -  °F | °C
As of 7:00 PM on Saturday 25 Oct 2014 (Local Time) from CYWL Reporting Station
Light Rain Light Rain  
Wind Chill: 26°   Ceiling: 2000
Heat Index: 32°   Visibility: 2mi
Dew Point: 32°   Wind: 6mph
Humidity: 100%   Direction: 310°NW
Pressure: 29.36"   Gusts: NA
Location:  52.45°N, 122.4°W
Report Text: CYWL 260200Z 31005KT 2SM -RA BR OVC020 00/00 A2936 RMK SC8 SLP972
Loading
Personal Weather Stations






























Interactive Weather Map New forecast layout! Learn more

10-Day Weather Forecast

Advertisements
Track Severe Weather on mobile